Time;durP1;ratioP1;P1;durP2;ratioP2;P2;SDS_P1;SDS_P2;PMS_P1;PMS_P2;Temp;Humidity;BMP_temperature;BMP_pressure;BME280_temperature;BME280_humidity;BME280_pressure;Samples;Min_cycle;Max_cycle;Signal;HPM_P1;HPM_P2
2023/03/17 08:03:47;;;;;;;134.68;78.30;;;;;;;6.94;92.95;98614.78;5139641;27;20370;-78
2023/03/17 08:06:13;;;;;;;131.90;77.50;;;;;;;7.18;87.39;98616.53;5122412;27;20044;-78
2023/03/17 08:08:40;;;;;;;143.55;79.15;;;;;;;7.46;89.52;98613.34;5121961;27;20054;-78
2023/03/17 08:11:06;;;;;;;149.75;80.80;;;;;;;7.60;90.35;98598.19;5125577;28;20043;-78
2023/03/17 08:13:33;;;;;;;141.02;79.80;;;;;;;7.69;89.39;98586.28;5124964;27;20472;-78
2023/03/17 08:16:00;;;;;;;139.32;78.38;;;;;;;7.95;83.83;98594.06;5126685;27;20058;-78
2023/03/17 08:18:27;;;;;;;129.88;77.78;;;;;;;8.23;78.70;98596.16;5124568;27;20047;-78
2023/03/17 08:20:55;;;;;;;142.05;78.43;;;;;;;8.42;72.84;98592.09;5143014;27;20062;-78
2023/03/17 08:23:22;;;;;;;131.13;75.90;;;;;;;8.69;69.57;98608.78;5126271;27;20067;-78
2023/03/17 08:25:48;;;;;;;143.27;81.47;;;;;;;8.81;65.35;98610.00;5128206;28;20047;-78
2023/03/17 08:28:15;;;;;;;138.80;78.40;;;;;;;9.06;66.16;98616.97;5127835;27;20047;-78
2023/03/17 08:30:42;;;;;;;135.27;77.68;;;;;;;9.04;66.24;98595.47;5128091;27;20047;-78
2023/03/17 08:33:08;;;;;;;137.30;78.88;;;;;;;9.16;66.54;98602.09;5126862;27;20424;-78
2023/03/17 08:35:36;;;;;;;143.13;79.40;;;;;;;9.22;66.40;98584.22;5133056;27;20046;-79
2023/03/17 08:38:04;;;;;;;138.35;80.35;;;;;;;9.24;63.87;98579.44;5126594;27;20069;-78
2023/03/17 08:40:30;;;;;;;140.43;82.00;;;;;;;9.36;66.15;98577.06;5128421;28;20055;-78
2023/03/17 08:42:57;;;;;;;142.65;83.13;;;;;;;9.51;65.20;98590.59;5126853;28;20073;-78
2023/03/17 08:45:24;;;;;;;131.75;77.70;;;;;;;9.68;62.86;98607.47;5128368;27;20058;-78
2023/03/17 08:47:51;;;;;;;152.70;89.38;;;;;;;9.71;62.96;98588.09;5126457;27;20054;-78
2023/03/17 08:50:20;;;;;;;127.10;77.80;;;;;;;9.71;61.63;98569.94;5125846;27;20051;-78
2023/03/17 08:52:47;;;;;;;139.70;82.18;;;;;;;9.92;62.82;98571.81;5115672;27;20043;-78
2023/03/17 08:55:16;;;;;;;141.50;82.32;;;;;;;10.16;61.21;98588.72;5107493;28;20051;-78
2023/03/17 08:57:44;;;;;;;148.68;87.10;;;;;;;10.24;58.96;98569.56;5117493;28;20138;-78
2023/03/17 09:00:12;;;;;;;139.82;82.00;;;;;;;10.26;59.98;98572.06;5126652;27;20142;-78
2023/03/17 09:02:41;;;;;;;136.68;79.00;;;;;;;10.26;58.67;98572.91;5126217;27;20043;-78
2023/03/17 09:05:12;;;;;;;141.45;82.45;;;;;;;10.28;58.04;98561.84;5124989;28;20078;-78
2023/03/17 09:07:39;;;;;;;145.10;83.10;;;;;;;10.25;58.32;98573.09;5128787;27;20059;-78
2023/03/17 09:10:07;;;;;;;145.55;83.90;;;;;;;10.34;58.94;98577.41;5126931;27;20127;-79
2023/03/17 09:12:36;;;;;;;138.68;80.13;;;;;;;10.41;59.41;98572.00;5124688;27;20039;-78
2023/03/17 09:15:03;;;;;;;149.38;84.68;;;;;;;10.23;58.52;98567.88;5112693;28;20054;-78
2023/03/17 09:17:29;;;;;;;139.75;79.70;;;;;;;10.40;56.75;98590.22;5113973;28;20048;-78
2023/03/17 09:19:56;;;;;;;140.65;81.03;;;;;;;10.28;58.26;98589.88;5113049;28;20051;-78
2023/03/17 09:22:23;;;;;;;141.80;80.00;;;;;;;10.25;58.08;98584.84;5112580;28;20175;-78
2023/03/17 09:24:49;;;;;;;125.15;76.35;;;;;;;10.12;57.85;98562.13;5107040;28;20505;-78
2023/03/17 09:27:16;;;;;;;122.03;75.35;;;;;;;10.30;57.38;98586.09;5121357;27;20047;-78
2023/03/17 09:29:44;;;;;;;133.40;77.60;;;;;;;10.23;57.70;98565.16;5112310;28;20047;-78
2023/03/17 09:32:11;;;;;;;135.18;80.53;;;;;;;10.43;60.37;98561.78;5113617;28;20050;-78
2023/03/17 09:34:37;;;;;;;130.10;78.18;;;;;;;10.54;58.62;98574.81;5111479;28;20055;-78
2023/03/17 09:37:04;;;;;;;139.27;80.32;;;;;;;10.56;57.04;98561.88;5112351;28;20059;-78
2023/03/17 09:39:30;;;;;;;146.93;80.68;;;;;;;10.74;58.98;98563.22;5108966;28;20053;-79
2023/03/17 09:42:07;;;;;;;138.57;80.97;;;;;;;10.91;59.31;98577.31;5109542;28;20054;-78
2023/03/17 09:44:47;;;;;;;146.45;83.75;;;;;;;11.04;58.52;98579.28;5109823;28;20047;-78
2023/03/17 09:47:33;;;;;;;142.23;80.07;;;;;;;11.15;58.53;98567.81;5113286;28;20055;-79
2023/03/17 09:50:03;;;;;;;137.10;78.20;;;;;;;11.20;57.54;98556.31;5111985;28;20047;-79
2023/03/17 09:52:32;;;;;;;147.30;85.80;;;;;;;11.27;57.90;98568.91;5112393;28;20138;-79
2023/03/17 09:54:59;;;;;;;154.70;88.47;;;;;;;11.40;58.20;98575.44;5109268;28;20107;-78
2023/03/17 09:57:31;;;;;;;141.45;79.07;;;;;;;11.50;59.63;98570.44;5110288;28;20384;-78
2023/03/17 10:00:05;;;;;;;133.73;79.53;;;;;;;11.52;57.71;98566.47;5111580;28;20079;-78
2023/03/17 10:02:33;;;;;;;130.88;77.35;;;;;;;11.41;54.34;98566.22;5121431;27;20522;-78
2023/03/17 10:05:10;;;;;;;140.43;79.03;;;;;;;11.51;56.51;98578.38;5131467;27;20047;-78
2023/03/17 10:07:45;;;;;;;142.70;80.30;;;;;;;11.57;57.29;98574.00;5112927;28;20050;-78
2023/03/17 10:10:15;;;;;;;136.52;79.13;;;;;;;11.50;55.72;98559.53;5109668;28;20051;-78
2023/03/17 10:12:49;;;;;;;127.53;76.88;;;;;;;11.68;58.31;98567.97;5111742;28;20100;-78
2023/03/17 10:15:23;;;;;;;122.40;76.18;;;;;;;11.82;57.95;98551.66;5112383;28;20054;-78
2023/03/17 10:17:52;;;;;;;159.27;89.95;;;;;;;11.92;57.64;98551.22;5115660;27;20049;-78
2023/03/17 10:20:25;;;;;;;139.05;79.47;;;;;;;12.09;55.55;98546.22;5115748;27;20182;-78
2023/03/17 10:22:56;;;;;;;139.27;79.50;;;;;;;12.31;58.32;98547.69;5112003;28;20040;-78
2023/03/17 10:25:27;;;;;;;148.63;83.60;;;;;;;12.47;55.46;98521.88;5107825;28;20093;-78
2023/03/17 10:27:59;;;;;;;156.50;89.63;;;;;;;12.77;51.12;98536.88;5120365;27;20047;-78
2023/03/17 10:30:28;;;;;;;130.80;79.60;;;;;;;12.68;53.14;98514.50;5111862;28;20052;-78
2023/03/17 10:32:58;;;;;;;140.02;80.13;;;;;;;12.83;52.02;98509.63;5111760;28;20486;-78
2023/03/17 10:35:25;;;;;;;131.60;79.63;;;;;;;13.05;52.90;98533.84;5118898;27;20078;-78
2023/03/17 10:37:52;;;;;;;146.55;86.82;;;;;;;12.97;53.65;98504.94;5112690;27;20122;-78
2023/03/17 10:40:21;;;;;;;137.73;81.05;;;;;;;13.11;52.38;98511.16;5111958;28;20052;-78
2023/03/17 10:42:49;;;;;;;134.88;79.82;;;;;;;13.05;51.57;98499.25;5108932;28;20054;-78
2023/03/17 10:45:23;;;;;;;140.27;81.05;;;;;;;13.20;51.04;98512.59;5112287;28;20051;-78
2023/03/17 10:47:52;;;;;;;158.98;89.43;;;;;;;13.41;51.44;98518.81;5094075;28;20456;-78
2023/03/17 10:50:22;;;;;;;141.13;80.07;;;;;;;13.53;51.17;98499.84;5111923;28;20052;-78
2023/03/17 10:52:52;;;;;;;;;;;;;;;13.67;51.26;98523.28;5108120;28;20494;-78
2023/03/17 10:55:22;;;;;;;145.60;80.65;;;;;;;13.58;49.97;98503.59;5120112;27;19923;-78
2023/03/17 10:57:52;;;;;;;164.27;90.70;;;;;;;13.62;51.09;98510.28;5117574;27;20117;-78
2023/03/17 11:00:21;;;;;;;143.25;80.97;;;;;;;13.70;48.90;98508.31;5109733;28;20056;-78
2023/03/17 11:02:59;;;;;;;140.32;80.32;;;;;;;13.87;50.60;98511.38;5111975;28;20055;-78
2023/03/17 11:05:27;;;;;;;142.77;81.30;;;;;;;13.89;50.55;98503.78;5111225;28;20477;-78
2023/03/17 11:07:57;;;;;;;169.40;91.40;;;;;;;14.08;50.34;98510.13;5107105;28;20043;-78
2023/03/17 11:10:26;;;;;;;148.13;81.50;;;;;;;14.21;49.45;98496.34;5110645;28;20138;-78
2023/03/17 11:12:57;;;;;;;141.60;80.40;;;;;;;14.42;49.34;98488.78;5110678;28;20131;-78
2023/03/17 11:15:28;;;;;;;155.93;83.03;;;;;;;14.65;46.22;98502.66;5110782;28;20466;-78
2023/03/17 11:18:00;;;;;;;165.52;91.20;;;;;;;14.86;46.98;98486.84;5111074;28;20101;-79
2023/03/17 11:20:51;;;;;;;144.90;81.55;;;;;;;15.00;48.51;98473.81;5104008;28;20054;-78
2023/03/17 11:23:26;;;;;;;149.43;82.88;;;;;;;15.20;47.18;98484.50;5101462;28;20052;-78
2023/03/17 11:26:01;;;;;;;152.98;82.80;;;;;;;15.10;44.50;98462.31;5091311;28;20048;-76
2023/03/17 11:28:35;;;;;;;146.43;82.72;;;;;;;15.20;45.22;98471.66;5108753;28;20100;-79
2023/03/17 11:31:11;;;;;;;155.88;85.05;;;;;;;15.27;47.43;98446.91;5111298;28;20051;-79
2023/03/17 11:33:47;;;;;;;144.88;84.82;;;;;;;15.36;45.02;98452.91;5107310;28;20177;-79
2023/03/17 11:36:25;;;;;;;128.73;78.85;;;;;;;15.30;46.07;98453.84;5110388;28;20041;-78
2023/03/17 11:38:59;;;;;;;129.90;79.10;;;;;;;15.51;49.21;98460.69;5105139;27;20148;-78
2023/03/17 11:41:45;;;;;;;144.65;83.57;;;;;;;15.55;47.95;98462.72;5109028;28;20131;-78
2023/03/17 11:44:33;;;;;;;146.20;83.65;;;;;;;15.63;45.07;98449.75;5105642;28;20055;-78
2023/03/17 11:47:07;;;;;;;143.77;82.55;;;;;;;15.68;45.03;98439.75;5101718;28;20055;-79
2023/03/17 11:49:37;;;;;;;152.50;84.78;;;;;;;15.82;45.40;98440.41;5110375;28;20055;-79
2023/03/17 11:52:11;;;;;;;146.95;83.40;;;;;;;15.97;42.46;98430.88;5108477;28;21069;-79
2023/03/17 11:54:47;;;;;;;150.25;84.15;;;;;;;16.14;42.60;98445.53;5110433;28;20044;-79
2023/03/17 11:57:20;;;;;;;154.07;84.10;;;;;;;16.21;43.26;98437.19;5114222;27;20039;-77
2023/03/17 11:59:51;;;;;;;145.65;82.78;;;;;;;16.23;43.67;98424.91;5090009;28;20048;-77
2023/03/17 12:02:26;;;;;;;142.85;82.13;;;;;;;16.40;44.24;98435.97;5098029;28;20500;-77
2023/03/17 12:04:57;;;;;;;142.85;82.63;;;;;;;16.70;42.95;98432.22;5110274;28;20135;-78
2023/03/17 12:07:25;;;;;;;155.50;95.25;;;;;;;16.70;44.58;98436.88;5106240;28;20043;-78
2023/03/17 12:10:00;;;;;;;160.85;106.10;;;;;;;16.89;43.84;98423.84;5110225;28;20405;-78
2023/03/17 12:12:31;;;;;;;151.77;89.68;;;;;;;17.14;40.12;98439.97;5109309;28;20073;-78
2023/03/17 12:15:01;;;;;;;142.18;81.65;;;;;;;17.14;40.88;98421.56;5123010;28;20114;-78
2023/03/17 12:17:33;;;;;;;150.52;87.00;;;;;;;17.37;41.11;98438.19;5128921;28;20126;-78
2023/03/17 12:20:11;;;;;;;147.73;89.97;;;;;;;17.31;40.20;98429.88;5109192;28;20048;-78
2023/03/17 12:22:42;;;;;;;143.60;86.63;;;;;;;17.25;41.89;98416.28;5110202;28;20051;-78
2023/03/17 12:25:18;;;;;;;158.35;90.45;;;;;;;17.21;39.96;98429.69;5104607;28;20054;-78
2023/03/17 12:27:53;;;;;;;162.02;92.47;;;;;;;17.37;41.98;98414.28;5109254;28;20048;-78
2023/03/17 12:30:33;;;;;;;140.75;85.88;;;;;;;17.05;39.05;98403.00;5110841;28;20138;-78
2023/03/17 12:33:11;;;;;;;139.38;85.53;;;;;;;17.19;42.82;98409.84;5108831;28;20517;-78
2023/03/17 12:35:39;;;;;;;146.88;89.50;;;;;;;17.31;39.68;98410.66;5111015;28;20044;-78
2023/03/17 12:38:11;;;;;;;148.05;84.30;;;;;;;17.49;40.17;98411.47;5108053;28;20122;-78
2023/03/17 12:40:54;;;;;;;145.55;84.90;;;;;;;17.56;40.72;98408.59;5112604;28;20485;-78
2023/03/17 12:43:36;;;;;;;142.27;82.00;;;;;;;17.51;41.01;98395.59;5116710;28;20410;-78
2023/03/17 12:46:29;;;;;;;144.95;82.10;;;;;;;17.53;39.42;98398.91;5110563;28;20044;-78
2023/03/17 12:49:17;;;;;;;148.50;84.28;;;;;;;17.59;41.03;98386.94;5109284;28;20040;-78
2023/03/17 12:52:16;;;;;;;156.45;87.20;;;;;;;17.68;38.75;98399.16;5112904;28;20055;-78
2023/03/17 12:54:48;;;;;;;146.70;85.57;;;;;;;17.60;41.33;98382.25;5112019;28;20040;-78
2023/03/17 12:57:18;;;;;;;153.02;88.53;;;;;;;17.64;40.14;98411.75;5112320;28;20074;-78
2023/03/17 12:59:47;;;;;;;156.50;89.78;;;;;;;17.82;41.04;98396.91;5121314;27;20044;-78
2023/03/17 13:02:18;;;;;;;143.95;84.22;;;;;;;17.85;39.79;98390.94;5112363;28;20052;-78
2023/03/17 13:04:52;;;;;;;137.05;82.18;;;;;;;18.09;40.90;98384.41;5114321;28;20040;-78
2023/03/17 13:07:23;;;;;;;140.70;84.80;;;;;;;18.04;41.19;98375.00;5109470;28;20051;-78
2023/03/17 13:10:10;;;;;;;128.20;81.72;;;;;;;18.10;42.21;98366.84;5112813;28;20459;-78
2023/03/17 13:13:06;;;;;;;118.03;78.18;;;;;;;18.12;39.36;98362.72;5113901;28;20131;-78
2023/03/17 13:15:54;;;;;;;130.65;81.80;;;;;;;18.28;38.66;98355.53;5112104;28;20039;-78
2023/03/17 13:18:44;;;;;;;110.18;75.40;;;;;;;18.42;35.91;98375.25;5120564;27;20102;-78
2023/03/17 13:21:14;;;;;;;120.38;79.45;;;;;;;18.40;38.04;98361.75;5124789;27;20490;-78
2023/03/17 13:23:44;;;;;;;123.35;79.95;;;;;;;18.33;38.64;98352.84;5121044;27;20052;-78
2023/03/17 13:26:12;;;;;;;135.68;84.13;;;;;;;18.46;38.49;98359.06;5113807;28;20044;-78
2023/03/17 13:28:46;;;;;;;143.75;89.50;;;;;;;18.25;37.24;98347.78;5112422;28;20058;-77
2023/03/17 13:31:35;;;;;;;153.07;92.82;;;;;;;18.58;38.13;98354.25;5109640;28;20491;-78
2023/03/17 13:34:16;;;;;;;147.75;96.53;;;;;;;18.70;37.36;98348.63;5111597;27;20409;-78
2023/03/17 13:37:00;;;;;;;146.35;83.20;;;;;;;18.76;34.47;98347.59;5125140;27;20053;-78
2023/03/17 13:39:52;;;;;;;152.63;85.93;;;;;;;18.70;33.76;98335.69;5133466;27;20508;-78
2023/03/17 13:42:42;;;;;;;138.82;83.95;;;;;;;18.92;33.07;98330.16;5093429;28;20058;-78
2023/03/17 13:45:21;;;;;;;137.27;86.80;;;;;;;18.87;34.29;98332.03;5104438;28;20158;-78
2023/03/17 13:47:51;;;;;;;153.13;92.38;;;;;;;18.90;33.06;98323.25;5103880;28;20055;-78
2023/03/17 13:50:22;;;;;;;;;;;;;;;18.96;30.99;98327.72;5113932;28;20407;-78
2023/03/17 13:52:53;;;;;;;134.73;83.38;;;;;;;18.97;32.62;98318.38;5119797;27;19999;-79
2023/03/17 13:55:38;;;;;;;143.18;83.15;;;;;;;19.05;31.83;98330.84;5114197;27;20043;-78
2023/03/17 13:58:23;;;;;;;141.00;82.75;;;;;;;18.97;33.65;98312.00;5111530;28;20054;-79
2023/03/17 14:00:58;;;;;;;141.38;83.57;;;;;;;19.11;30.12;98324.28;5110487;28;20054;-79
2023/03/17 14:03:31;;;;;;;144.88;83.45;;;;;;;18.98;31.68;98317.25;5112407;28;20430;-79
2023/03/17 14:06:02;;;;;;;144.73;83.28;;;;;;;18.82;32.06;98313.50;5112788;28;20138;-79
2023/03/17 14:08:32;;;;;;;140.18;83.80;;;;;;;18.84;32.23;98304.97;5117648;27;20065;-78
2023/03/17 14:11:01;;;;;;;;;;;;;;;19.00;33.72;98304.06;5113688;28;20051;-78
2023/03/17 14:13:30;;;;;;;146.98;84.10;;;;;;;18.97;34.53;98301.84;5110761;28;20010;-78
2023/03/17 14:16:02;;;;;;;155.05;90.82;;;;;;;19.02;35.01;98279.84;5110805;28;20071;-79
2023/03/17 14:18:32;;;;;;;150.13;89.90;;;;;;;19.27;34.45;98281.16;5111313;28;20051;-78
2023/03/17 14:21:01;;;;;;;145.43;90.00;;;;;;;19.17;33.54;98279.16;5112918;28;20292;-79
2023/03/17 14:23:28;;;;;;;146.35;88.20;;;;;;;19.18;33.61;98278.06;5116480;27;20054;-79
2023/03/17 14:25:56;;;;;;;152.90;87.07;;;;;;;19.04;32.68;98277.66;5119656;27;20051;-79
2023/03/17 14:28:27;;;;;;;146.27;90.68;;;;;;;19.01;33.44;98280.09;5110380;28;20074;-79
2023/03/17 14:30:55;;;;;;;151.25;93.82;;;;;;;18.93;34.39;98281.41;5111727;28;20502;-78
2023/03/17 14:33:24;;;;;;;147.32;90.97;;;;;;;18.75;35.09;98272.41;5111089;28;20485;-78
2023/03/17 14:35:53;;;;;;;153.40;89.32;;;;;;;18.87;37.04;98275.03;5112665;28;20055;-79
2023/03/17 14:38:23;;;;;;;155.73;98.47;;;;;;;18.70;38.57;98282.53;5110143;28;20054;-78
2023/03/17 14:40:50;;;;;;;147.00;89.90;;;;;;;18.74;34.48;98264.41;5117347;27;20277;-79
2023/03/17 14:43:17;;;;;;;146.23;89.00;;;;;;;18.75;34.81;98279.84;5111266;27;20138;-79
2023/03/17 14:45:51;;;;;;;145.70;90.95;;;;;;;18.64;37.29;98259.63;5111152;28;20513;-79
2023/03/17 14:48:23;;;;;;;148.88;97.15;;;;;;;18.61;38.58;98271.16;5106851;28;20047;-78
2023/03/17 14:50:51;;;;;;;146.27;88.00;;;;;;;18.51;39.09;98282.88;5112433;28;20047;-79
2023/03/17 14:53:19;;;;;;;148.48;85.93;;;;;;;18.48;40.34;98260.56;5114198;27;20036;-79
2023/03/17 14:55:46;;;;;;;146.10;85.43;;;;;;;18.27;38.66;98268.56;5115964;27;20077;-79
2023/03/17 14:58:22;;;;;;;147.38;90.07;;;;;;;18.33;41.94;98263.97;5118833;27;20039;-78
2023/03/17 15:00:57;;;;;;;145.02;91.45;;;;;;;18.09;38.75;98271.66;5110866;28;20044;-78
2023/03/17 15:03:27;;;;;;;145.30;86.03;;;;;;;18.21;39.00;98248.41;5108533;28;20043;-78
2023/03/17 15:06:03;;;;;;;;;;;;;;;18.24;39.09;98268.28;5112728;28;20513;-79
2023/03/17 15:08:45;;;;;;;143.05;89.10;;;;;;;18.18;38.58;98261.88;5107648;27;19920;-79
2023/03/17 15:11:19;;;;;;;147.85;93.40;;;;;;;18.14;40.71;98246.97;5124614;27;20434;-79
2023/03/17 15:13:47;;;;;;;131.65;81.68;;;;;;;17.98;41.00;98251.44;5109844;28;20510;-79
2023/03/17 15:16:20;;;;;;;145.40;84.22;;;;;;;17.81;39.34;98256.94;5109927;28;20048;-79
2023/03/17 15:18:47;;;;;;;148.38;84.40;;;;;;;17.80;39.04;98258.06;5109357;27;20226;-79
2023/03/17 15:21:29;;;;;;;152.68;96.00;;;;;;;17.92;41.82;98269.78;5115864;27;20134;-79
2023/03/17 15:23:56;;;;;;;156.88;90.15;;;;;;;17.77;43.25;98244.81;5109225;28;20043;-79
2023/03/17 15:26:28;;;;;;;149.35;94.53;;;;;;;17.69;42.45;98246.09;5110158;28;20062;-79
2023/03/17 15:28:54;;;;;;;151.90;97.22;;;;;;;17.71;44.26;98252.16;5110949;28;20414;-79
2023/03/17 15:31:25;;;;;;;150.13;100.78;;;;;;;17.66;44.09;98261.16;5109525;28;20055;-79
2023/03/17 15:33:52;;;;;;;143.23;101.32;;;;;;;17.41;39.85;98247.88;5109152;28;20075;-79
2023/03/17 15:36:18;;;;;;;148.45;86.65;;;;;;;17.58;40.75;98264.34;5119609;27;20050;-79
2023/03/17 15:38:45;;;;;;;132.93;84.00;;;;;;;17.48;41.52;98247.72;5123650;27;20051;-79
2023/03/17 15:41:11;;;;;;;142.38;87.25;;;;;;;17.49;41.36;98254.84;5110390;28;20047;-79
2023/03/17 15:43:38;;;;;;;145.88;87.70;;;;;;;17.60;40.08;98261.34;5111476;28;20466;-79
2023/03/17 15:46:07;;;;;;;157.23;112.35;;;;;;;17.51;40.16;98260.97;5109387;28;20040;-79
2023/03/17 15:48:36;;;;;;;151.95;93.80;;;;;;;17.67;40.42;98259.25;5110499;28;20135;-79
2023/03/17 15:51:05;;;;;;;150.32;95.90;;;;;;;17.47;40.30;98252.38;5116464;27;20142;-79
2023/03/17 15:53:32;;;;;;;150.20;98.50;;;;;;;17.38;41.81;98242.91;5112419;28;20493;-79
2023/03/17 15:55:58;;;;;;;146.00;94.07;;;;;;;17.34;41.26;98252.72;5108600;28;20422;-79
2023/03/17 15:58:25;;;;;;;147.27;91.22;;;;;;;17.37;41.25;98248.63;5109729;28;20150;-79
